createdAt,value
2017-11-21T00:00:26.336Z,9.13
2017-11-21T00:03:05.390Z,9.03
2017-11-21T00:05:36.406Z,9.87
2017-11-21T00:08:03.562Z,10.80
2017-11-21T00:10:30.711Z,6.30
2017-11-21T00:12:57.875Z,6.95
2017-11-21T00:15:25.579Z,7.07
2017-11-21T00:17:52.745Z,6.43
2017-11-21T00:20:19.836Z,5.50
2017-11-21T00:22:47.486Z,5.18
2017-11-21T00:25:14.550Z,4.07
2017-11-21T00:27:41.512Z,5.65
2017-11-21T00:30:08.720Z,4.30
2017-11-21T00:32:37.114Z,4.60
2017-11-21T00:35:14.933Z,3.75
2017-11-21T00:37:47.990Z,4.50
2017-11-21T00:40:23.151Z,4.18
2017-11-21T00:42:54.405Z,3.57
2017-11-21T00:45:23.625Z,3.17
2017-11-21T00:47:57.504Z,3.28
2017-11-21T00:50:28.760Z,4.40
2017-11-21T00:53:00.809Z,4.18
2017-11-21T00:55:30.115Z,4.00
2017-11-21T00:57:57.752Z,3.40
2017-11-21T01:00:27.305Z,3.55
2017-11-21T01:02:57.430Z,3.47
2017-11-21T01:05:29.230Z,3.70
2017-11-21T01:07:57.698Z,3.12
2017-11-21T01:10:24.620Z,3.60
2017-11-21T01:12:52.952Z,4.62
2017-11-21T01:15:20.122Z,3.00
2017-11-21T01:17:48.039Z,4.30
2017-11-21T01:20:15.167Z,2.77
2017-11-21T01:22:46.277Z,3.30
2017-11-21T01:25:14.352Z,3.75
2017-11-21T01:27:41.369Z,3.30
2017-11-21T01:30:08.522Z,3.60
2017-11-21T01:32:35.821Z,3.40
2017-11-21T01:35:02.800Z,2.97
2017-11-21T01:37:30.059Z,3.90
2017-11-21T01:39:57.757Z,3.72
2017-11-21T01:42:25.270Z,3.90
2017-11-21T01:44:53.852Z,3.33
2017-11-21T01:47:22.511Z,3.10
2017-11-21T01:49:50.382Z,3.50
2017-11-21T01:52:18.541Z,3.63
2017-11-21T01:54:45.565Z,2.90
2017-11-21T01:57:14.345Z,3.80
2017-11-21T01:59:43.265Z,3.70
2017-11-21T02:02:10.269Z,3.72
2017-11-21T02:04:39.375Z,3.97
2017-11-21T02:07:08.813Z,4.70
2017-11-21T02:09:36.613Z,3.37
2017-11-21T02:12:04.248Z,4.13
2017-11-21T02:14:31.196Z,4.43
2017-11-21T02:16:59.189Z,3.70
2017-11-21T02:19:27.066Z,4.05
2017-11-21T02:21:54.638Z,5.17
2017-11-21T02:24:21.755Z,4.30
2017-11-21T02:26:48.850Z,3.90
2017-11-21T02:29:16.108Z,4.03
2017-11-21T02:31:43.173Z,4.47
2017-11-21T02:34:10.329Z,3.83
2017-11-21T02:36:37.534Z,4.50
2017-11-21T02:39:04.713Z,5.00
2017-11-21T02:41:31.858Z,5.03
2017-11-21T02:43:58.898Z,5.80
2017-11-21T02:46:25.783Z,4.83
2017-11-21T02:48:52.724Z,5.00
2017-11-21T02:51:19.735Z,4.80
2017-11-21T02:53:47.540Z,4.50
2017-11-21T02:56:14.548Z,4.70
2017-11-21T02:58:41.509Z,5.78
2017-11-21T03:01:08.581Z,4.90
2017-11-21T03:03:35.504Z,5.27
2017-11-21T03:06:02.406Z,5.40
2017-11-21T03:08:30.121Z,6.23
2017-11-21T03:10:57.117Z,6.60
2017-11-21T03:13:25.293Z,5.50
2017-11-21T03:15:53.652Z,4.43
2017-11-21T03:18:22.323Z,5.80
2017-11-21T03:21:02.660Z,6.50
2017-11-21T03:23:44.515Z,5.40
2017-11-21T03:26:26.230Z,4.77
2017-11-21T03:28:56.547Z,6.70
2017-11-21T03:31:23.646Z,6.60
2017-11-21T03:33:53.397Z,6.20
2017-11-21T03:36:22.778Z,6.25
2017-11-21T03:38:50.168Z,5.20
2017-11-21T03:41:20.650Z,5.57
2017-11-21T03:43:51.356Z,5.83
2017-11-21T03:46:18.377Z,6.37
2017-11-21T03:48:46.749Z,6.10
2017-11-21T03:51:16.234Z,6.77
2017-11-21T03:53:44.227Z,6.70
2017-11-21T03:56:12.456Z,5.95
2017-11-21T03:58:39.446Z,6.40
2017-11-21T04:01:07.421Z,6.27
2017-11-21T04:03:34.376Z,6.10
2017-11-21T04:06:02.542Z,7.53
2017-11-21T04:08:29.484Z,7.00
2017-11-21T04:10:56.933Z,6.93
2017-11-21T04:13:23.938Z,6.87
2017-11-21T04:15:51.055Z,5.57
2017-11-21T04:18:21.093Z,5.70
2017-11-21T04:20:48.857Z,6.80
2017-11-21T04:23:15.965Z,6.47
2017-11-21T04:25:43.128Z,5.87
2017-11-21T04:28:10.137Z,6.23
2017-11-21T04:30:38.580Z,6.60
2017-11-21T04:33:07.537Z,5.90
2017-11-21T04:35:34.557Z,5.70
2017-11-21T04:38:01.527Z,5.60
2017-11-21T04:40:28.558Z,6.10
2017-11-21T04:42:55.490Z,5.77
2017-11-21T04:45:22.435Z,5.50
2017-11-21T04:47:49.375Z,6.90
2017-11-21T04:50:16.267Z,6.17
2017-11-21T04:52:43.275Z,7.53
2017-11-21T04:55:11.919Z,6.20
2017-11-21T04:57:39.841Z,5.77
2017-11-21T05:00:07.656Z,5.60
2017-11-21T05:02:35.451Z,6.47
2017-11-21T05:05:02.567Z,6.30
2017-11-21T05:07:29.529Z,6.10
2017-11-21T05:09:57.210Z,8.10
2017-11-21T05:12:24.226Z,6.27
2017-11-21T05:14:51.868Z,6.40
2017-11-21T05:17:18.805Z,6.00
2017-11-21T05:19:47.535Z,6.07
2017-11-21T05:22:17.658Z,11.70
2017-11-21T05:24:48.107Z,8.00
2017-11-21T05:27:25.443Z,7.03
2017-11-21T05:29:52.513Z,7.83
2017-11-21T05:32:34.246Z,6.03
2017-11-21T05:35:01.642Z,6.87
2017-11-21T05:37:30.112Z,7.10
2017-11-21T05:39:57.295Z,7.10
2017-11-21T05:42:24.487Z,8.67
2017-11-21T05:45:06.571Z,6.30
2017-11-21T05:47:34.790Z,6.43
2017-11-21T05:52:26.191Z,9.27
2017-11-21T05:54:54.121Z,8.40
2017-11-21T05:57:23.425Z,8.37
2017-11-21T05:59:51.928Z,9.20
2017-11-21T06:02:21.144Z,8.67
2017-11-21T06:04:49.835Z,7.73
2017-11-21T06:07:17.308Z,9.40
2017-11-21T06:09:46.316Z,7.67
2017-11-21T06:12:14.939Z,8.57
2017-11-21T06:14:42.762Z,7.70
2017-11-21T06:17:13.636Z,7.80
2017-11-21T06:19:43.684Z,8.07
2017-11-21T06:22:11.981Z,9.00
2017-11-21T06:24:39.018Z,9.80
2017-11-21T06:27:06.146Z,8.30
2017-11-21T06:29:34.211Z,8.50
2017-11-21T06:32:04.232Z,9.80
2017-11-21T06:34:31.641Z,9.30
2017-11-21T06:36:58.724Z,10.47
2017-11-21T06:39:26.145Z,9.87
2017-11-21T06:41:53.520Z,9.30
2017-11-21T06:44:20.446Z,9.23
2017-11-21T06:46:47.301Z,11.80
2017-11-21T06:49:14.236Z,9.23
2017-11-21T06:51:41.293Z,8.70
2017-11-21T06:54:08.259Z,8.10
2017-11-21T06:56:35.868Z,7.50
2017-11-21T06:59:13.038Z,6.77
2017-11-21T07:01:43.723Z,6.70
2017-11-21T07:04:18.196Z,6.10
2017-11-21T07:06:52.286Z,7.20
2017-11-21T07:09:40.823Z,6.73
2017-11-21T07:12:15.792Z,8.90
2017-11-21T07:14:51.114Z,6.67
2017-11-21T07:17:26.306Z,7.13
2017-11-21T07:20:03.860Z,5.70
2017-11-21T07:22:38.229Z,6.43
2017-11-21T07:25:15.108Z,6.20
2017-11-21T07:27:46.091Z,6.27
2017-11-21T07:30:13.780Z,6.57
2017-11-21T07:32:41.246Z,6.97
2017-11-21T07:35:08.472Z,5.67
2017-11-21T07:37:35.693Z,6.60
2017-11-21T07:40:02.968Z,5.67
2017-11-21T07:42:30.377Z,5.10
2017-11-21T07:44:57.981Z,5.37
2017-11-21T07:47:24.939Z,4.80
2017-11-21T07:49:52.030Z,5.17
2017-11-21T07:52:19.255Z,4.67
2017-11-21T07:54:46.696Z,4.33
2017-11-21T07:57:13.660Z,5.43
2017-11-21T07:59:41.453Z,5.40
2017-11-21T08:02:10.791Z,5.30
2017-11-21T08:04:38.182Z,4.93
2017-11-21T08:07:05.118Z,4.00
2017-11-21T08:09:32.724Z,4.80
2017-11-21T08:12:00.720Z,4.27
2017-11-21T08:14:27.756Z,5.37
2017-11-21T08:16:54.716Z,5.07
2017-11-21T08:19:22.985Z,4.80
2017-11-21T08:21:53.310Z,6.73
2017-11-21T08:24:20.298Z,5.00
2017-11-21T08:26:47.240Z,4.80
2017-11-21T08:29:17.173Z,5.60
2017-11-21T08:31:47.301Z,5.30
2017-11-21T08:34:15.138Z,5.97
2017-11-21T08:36:43.525Z,5.10
2017-11-21T08:39:12.493Z,5.77
2017-11-21T08:41:42.737Z,5.07
2017-11-21T08:44:12.169Z,5.73
2017-11-21T08:46:40.956Z,5.90
2017-11-21T08:49:07.910Z,6.03
2017-11-21T08:51:35.500Z,7.80
2017-11-21T08:54:06.014Z,8.73
2017-11-21T08:56:33.292Z,5.03
2017-11-21T08:59:01.826Z,5.23
2017-11-21T09:01:28.883Z,5.57
2017-11-21T09:03:56.719Z,5.80
2017-11-21T09:06:40.737Z,7.70
2017-11-21T09:09:18.681Z,4.97
2017-11-21T09:12:03.969Z,5.50
2017-11-21T09:14:33.179Z,6.30
2017-11-21T09:17:01.027Z,5.27
2017-11-21T09:19:28.275Z,5.17
2017-11-21T09:21:55.273Z,4.10
2017-11-21T09:24:22.333Z,5.03
2017-11-21T09:26:49.932Z,5.53
2017-11-21T09:29:19.602Z,4.57
2017-11-21T09:31:51.315Z,4.23
2017-11-21T09:34:22.450Z,5.90
2017-11-21T09:36:53.711Z,4.90
2017-11-21T09:39:22.676Z,4.40
2017-11-21T09:41:55.224Z,5.10
2017-11-21T09:44:30.112Z,5.17
2017-11-21T09:47:00.304Z,6.17
2017-11-21T09:49:29.495Z,4.50
2017-11-21T09:52:02.058Z,5.10
2017-11-21T09:54:30.132Z,5.60
2017-11-21T09:56:57.043Z,5.17
2017-11-21T09:59:24.665Z,4.63
2017-11-21T10:01:55.602Z,3.57
2017-11-21T10:04:28.906Z,4.27
2017-11-21T10:06:57.691Z,6.30
2017-11-21T10:09:24.651Z,5.00
2017-11-21T10:11:53.786Z,3.87
2017-11-21T10:14:21.392Z,4.27
2017-11-21T10:16:49.088Z,5.30
2017-11-21T10:19:20.948Z,5.73
2017-11-21T10:21:52.869Z,6.10
2017-11-21T10:24:20.678Z,5.50
2017-11-21T10:26:54.199Z,5.50
2017-11-21T10:29:25.769Z,5.87
2017-11-21T10:31:58.678Z,4.60
2017-11-21T10:34:25.814Z,5.23
2017-11-21T10:36:57.921Z,4.67
2017-11-21T10:39:27.474Z,4.87
2017-11-21T10:41:56.887Z,4.47
2017-11-21T10:44:29.601Z,5.00
2017-11-21T10:46:58.318Z,5.00
2017-11-21T10:49:25.372Z,5.20
2017-11-21T10:51:52.234Z,6.37
2017-11-21T10:54:20.118Z,5.10
2017-11-21T10:56:54.552Z,4.57
2017-11-21T10:59:34.587Z,5.60
2017-11-21T11:02:09.496Z,5.70
2017-11-21T11:04:38.899Z,5.23
2017-11-21T11:07:06.692Z,4.07
2017-11-21T11:09:37.660Z,5.87
2017-11-21T11:12:11.805Z,6.07
2017-11-21T11:14:39.399Z,5.07
2017-11-21T11:17:06.572Z,4.63
2017-11-21T11:19:37.581Z,5.53
2017-11-21T11:22:08.520Z,5.40
2017-11-21T11:24:47.714Z,5.00
2017-11-21T11:27:19.837Z,5.00
2017-11-21T11:29:56.165Z,6.20
2017-11-21T11:32:24.831Z,5.70
2017-11-21T11:34:56.841Z,5.60
2017-11-21T11:37:24.087Z,5.73
2017-11-21T11:39:52.053Z,5.03
2017-11-21T11:42:19.234Z,5.67
2017-11-21T11:44:50.552Z,6.93
2017-11-21T11:47:18.446Z,6.30
2017-11-21T11:49:46.018Z,6.63
2017-11-21T11:52:15.316Z,7.60
2017-11-21T11:54:44.495Z,5.93
2017-11-21T11:57:15.787Z,7.93
2017-11-21T11:59:43.608Z,8.83
2017-11-21T12:02:14.985Z,8.80
2017-11-21T12:04:42.060Z,9.10
2017-11-21T12:07:09.056Z,7.80
2017-11-21T12:09:41.564Z,9.03
2017-11-21T12:12:17.652Z,9.33
2017-11-21T12:14:47.495Z,9.77
2017-11-21T12:17:19.694Z,9.27
2017-11-21T12:19:49.158Z,8.47
2017-11-21T12:22:28.208Z,10.67
2017-11-21T12:25:01.432Z,9.03
2017-11-21T12:27:28.752Z,9.67
2017-11-21T12:30:00.069Z,12.33
2017-11-21T12:32:27.868Z,9.97
2017-11-21T12:35:05.914Z,9.93
2017-11-21T12:37:38.491Z,11.83
2017-11-21T12:40:07.993Z,11.87
2017-11-21T12:42:36.032Z,10.70
2017-11-21T12:45:04.843Z,11.53
2017-11-21T12:47:41.856Z,10.23
2017-11-21T12:50:17.406Z,10.60
2017-11-21T12:52:44.979Z,10.73
2017-11-21T12:55:12.119Z,11.70
2017-11-21T12:57:40.049Z,12.80
2017-11-21T13:00:09.490Z,12.20
2017-11-21T13:02:39.143Z,11.90
2017-11-21T13:05:07.115Z,11.90
2017-11-21T13:07:38.385Z,12.87
2017-11-21T13:10:10.404Z,14.13
2017-11-21T13:12:37.593Z,13.13
2017-11-21T13:15:05.457Z,14.60
2017-11-21T13:17:34.137Z,14.93
2017-11-21T13:20:02.368Z,12.63
2017-11-21T13:22:29.506Z,14.40
2017-11-21T13:24:56.768Z,12.87
2017-11-21T13:27:23.940Z,13.30
2017-11-21T13:29:51.205Z,11.90
2017-11-21T13:32:18.226Z,12.07
2017-11-21T13:34:45.216Z,12.90
2017-11-21T13:37:12.258Z,12.00
2017-11-21T13:39:39.391Z,13.20
2017-11-21T13:42:06.399Z,13.83
2017-11-21T13:44:33.470Z,14.83
2017-11-21T13:47:01.023Z,11.17
2017-11-21T13:49:31.501Z,13.70
2017-11-21T13:51:58.862Z,12.67
2017-11-21T13:54:26.634Z,10.83
2017-11-21T13:56:54.383Z,12.50
2017-11-21T13:59:21.461Z,13.30
2017-11-21T14:01:51.623Z,10.23
2017-11-21T14:04:26.210Z,13.07
2017-11-21T14:06:57.456Z,10.63
2017-11-21T14:09:25.239Z,10.67
2017-11-21T14:11:52.301Z,11.17
2017-11-21T14:14:19.513Z,10.60
2017-11-21T14:16:48.800Z,11.60
2017-11-21T14:19:17.914Z,11.20
2017-11-21T14:21:47.267Z,11.63
2017-11-21T14:24:14.331Z,11.90
2017-11-21T14:26:41.557Z,13.20
2017-11-21T14:29:11.944Z,14.27
2017-11-21T14:31:52.915Z,13.40
2017-11-21T14:34:28.189Z,13.43
2017-11-21T14:37:03.672Z,12.00
2017-11-21T14:39:41.956Z,12.97
2017-11-21T14:42:18.546Z,12.50
2017-11-21T14:44:48.807Z,14.40
2017-11-21T14:47:20.689Z,13.43
2017-11-21T14:49:51.894Z,13.03
2017-11-21T14:52:33.866Z,14.30
2017-11-21T14:55:14.208Z,15.63
2017-11-21T14:57:44.809Z,16.00
2017-11-21T15:00:21.149Z,18.77
2017-11-21T15:02:48.825Z,19.17
2017-11-21T15:05:21.728Z,15.53
2017-11-21T15:07:49.464Z,16.07
2017-11-21T15:10:19.912Z,15.83
2017-11-21T15:12:48.660Z,17.70
2017-11-21T15:15:19.429Z,15.03
2017-11-21T15:17:46.756Z,15.97
2017-11-21T15:20:23.873Z,17.93
2017-11-21T15:22:52.645Z,18.00
2017-11-21T15:25:27.400Z,20.37
2017-11-21T15:27:54.561Z,18.40
2017-11-21T15:30:31.534Z,17.77
2017-11-21T15:33:08.361Z,20.10
2017-11-21T15:35:49.692Z,25.27
2017-11-21T15:41:05.296Z,19.30
2017-11-21T15:43:41.835Z,19.40
2017-11-21T15:46:21.202Z,21.63
2017-11-21T15:48:56.372Z,20.13
2017-11-21T15:51:33.502Z,17.57
2017-11-21T15:54:13.712Z,19.67
2017-11-21T15:56:44.123Z,20.57
2017-11-21T15:59:20.097Z,17.80
2017-11-21T16:01:49.408Z,16.63
2017-11-21T16:04:26.655Z,20.60
2017-11-21T16:07:02.852Z,17.67
2017-11-21T16:09:29.826Z,17.67
2017-11-21T16:12:06.494Z,17.33
2017-11-21T16:14:36.350Z,17.43
2017-11-21T16:17:03.480Z,16.70
2017-11-21T16:19:42.335Z,20.37
2017-11-21T16:22:11.813Z,16.07
2017-11-21T16:24:50.954Z,17.00
2017-11-21T16:27:18.777Z,14.63
2017-11-21T16:29:50.800Z,17.47
2017-11-21T16:32:26.190Z,16.60
2017-11-21T16:34:58.938Z,17.40
2017-11-21T16:37:40.140Z,20.37
2017-11-21T16:40:07.270Z,19.00
2017-11-21T16:42:42.013Z,16.60
2017-11-21T16:45:12.972Z,17.90
2017-11-21T16:47:48.177Z,18.47
2017-11-21T16:50:15.490Z,19.07
2017-11-21T16:55:27.935Z,15.87
2017-11-21T16:57:55.550Z,18.07
2017-11-21T17:00:27.500Z,18.93
2017-11-21T17:02:55.321Z,18.77
2017-11-21T17:05:23.126Z,20.53
2017-11-21T17:07:57.184Z,24.10
2017-11-21T17:10:34.477Z,20.17
2017-11-21T17:13:03.945Z,21.63
2017-11-21T17:15:32.129Z,18.50
2017-11-21T17:17:59.011Z,18.83
2017-11-21T17:20:29.620Z,18.00
2017-11-21T17:22:57.385Z,19.33
2017-11-21T17:25:25.545Z,19.47
2017-11-21T17:27:52.712Z,22.50
2017-11-21T17:30:19.873Z,17.10
2017-11-21T17:32:53.976Z,18.80
2017-11-21T17:35:21.218Z,22.83
2017-11-21T17:37:48.238Z,18.80
2017-11-21T17:40:16.325Z,18.20
2017-11-21T17:42:52.348Z,20.23
2017-11-21T17:45:28.323Z,19.50
2017-11-21T17:47:59.617Z,21.67
2017-11-21T17:50:28.362Z,23.03
2017-11-21T17:52:56.162Z,20.30
2017-11-21T17:55:23.330Z,20.87
2017-11-21T17:57:51.438Z,21.90
2017-11-21T18:00:18.535Z,25.10
2017-11-21T18:02:45.560Z,21.07
2017-11-21T18:05:13.208Z,23.87
2017-11-21T18:07:40.229Z,22.60
2017-11-21T18:10:07.859Z,22.73
2017-11-21T18:12:34.887Z,23.07
2017-11-21T18:15:01.824Z,23.73
2017-11-21T18:17:29.486Z,22.17
2017-11-21T18:19:56.439Z,21.37
2017-11-21T18:22:24.187Z,22.00
2017-11-21T18:24:51.144Z,21.27
2017-11-21T18:27:18.883Z,21.00
2017-11-21T18:29:47.235Z,24.70
2017-11-21T18:32:15.204Z,22.80
2017-11-21T18:34:43.925Z,24.13
2017-11-21T18:37:11.685Z,23.40
2017-11-21T18:39:41.962Z,25.20
2017-11-21T18:42:11.817Z,23.13
2017-11-21T18:44:41.427Z,24.17
2017-11-21T18:47:11.810Z,20.93
2017-11-21T18:49:41.639Z,22.17
2017-11-21T18:52:11.525Z,23.87
2017-11-21T18:54:42.493Z,18.60
2017-11-21T18:57:10.611Z,24.70
2017-11-21T18:59:37.911Z,16.63
2017-11-21T19:02:06.953Z,19.50
2017-11-21T19:04:34.096Z,19.43
2017-11-21T19:07:01.185Z,22.00
2017-11-21T19:09:32.754Z,21.03
2017-11-21T19:12:02.843Z,18.03
2017-11-21T19:14:35.004Z,23.03
2017-11-21T19:17:10.921Z,21.17
2017-11-21T19:19:40.727Z,19.27
2017-11-21T19:22:12.017Z,19.10
2017-11-21T19:24:42.605Z,20.27
2017-11-21T19:27:10.544Z,26.00
2017-11-21T19:29:38.344Z,20.03
2017-11-21T19:32:06.318Z,20.60
2017-11-21T19:34:37.715Z,18.43
2017-11-21T19:37:17.205Z,23.00
2017-11-21T19:39:49.390Z,21.80
2017-11-21T19:42:19.656Z,21.50
2017-11-21T19:47:37.370Z,20.00
2017-11-21T19:50:18.352Z,23.43
2017-11-21T19:52:59.859Z,22.83
2017-11-21T19:55:30.980Z,20.47
2017-11-21T19:58:01.485Z,16.23
2017-11-21T20:00:30.827Z,19.63
2017-11-21T20:03:01.916Z,18.30
2017-11-21T20:05:30.607Z,17.57
2017-11-21T20:07:58.130Z,15.57
2017-11-21T20:10:25.154Z,18.20
2017-11-21T20:12:52.875Z,17.73
2017-11-21T20:15:24.017Z,18.23
2017-11-21T20:17:51.676Z,18.50
2017-11-21T20:20:19.000Z,18.70
2017-11-21T20:22:46.232Z,14.77
2017-11-21T20:25:13.208Z,15.10
2017-11-21T20:27:40.249Z,18.80
2017-11-21T20:30:07.168Z,16.87
2017-11-21T20:32:34.276Z,16.57
2017-11-21T20:35:01.289Z,17.73
2017-11-21T20:37:29.224Z,16.73
2017-11-21T20:39:56.245Z,18.57
2017-11-21T20:42:23.338Z,16.40
2017-11-21T20:44:50.321Z,15.00
2017-11-21T20:47:17.523Z,17.87
2017-11-21T20:49:44.553Z,19.37
2017-11-21T20:52:11.496Z,19.17
2017-11-21T20:54:38.521Z,17.57
2017-11-21T20:57:06.232Z,21.30
2017-11-21T20:59:35.372Z,17.33
2017-11-21T21:02:02.655Z,16.47
2017-11-21T21:04:30.402Z,17.47
2017-11-21T21:06:58.139Z,20.27
2017-11-21T21:09:25.057Z,15.10
2017-11-21T21:11:51.969Z,21.63
2017-11-21T21:14:19.743Z,16.43
2017-11-21T21:16:46.765Z,16.40
2017-11-21T21:19:14.401Z,16.20
2017-11-21T21:21:42.602Z,14.23
2017-11-21T21:24:09.929Z,16.50
2017-11-21T21:26:38.765Z,16.93
2017-11-21T21:29:06.626Z,15.53
2017-11-21T21:31:34.747Z,14.93
2017-11-21T21:34:02.689Z,14.23
2017-11-21T21:36:29.816Z,14.40
2017-11-21T21:39:05.651Z,14.73
2017-11-21T21:41:34.299Z,15.90
2017-11-21T21:44:01.481Z,15.87
2017-11-21T21:46:28.452Z,16.00
2017-11-21T21:48:56.485Z,15.40
2017-11-21T21:51:23.893Z,13.20
2017-11-21T21:53:50.969Z,14.37
2017-11-21T21:56:18.077Z,17.00
2017-11-21T21:58:55.376Z,13.07
2017-11-21T22:01:23.603Z,13.67
2017-11-21T22:03:50.631Z,16.57
2017-11-21T22:06:32.468Z,12.87
2017-11-21T22:09:04.939Z,16.17
2017-11-21T22:11:40.502Z,13.80
2017-11-21T22:14:16.132Z,16.00
2017-11-21T22:16:52.290Z,14.83
2017-11-21T22:22:14.645Z,15.93
2017-11-21T22:24:48.189Z,12.83
2017-11-21T22:27:23.635Z,12.87
2017-11-21T22:29:58.901Z,13.37
2017-11-21T22:32:35.168Z,15.27
2017-11-21T22:35:08.166Z,13.53
2017-11-21T22:37:46.489Z,15.63
2017-11-21T22:40:14.848Z,12.83
2017-11-21T22:42:42.551Z,13.83
2017-11-21T22:45:10.185Z,14.10
2017-11-21T22:47:39.419Z,16.10
2017-11-21T22:50:07.421Z,16.20
2017-11-21T22:52:35.121Z,12.20
2017-11-21T22:55:03.162Z,14.47
2017-11-21T22:57:31.009Z,15.73
2017-11-21T22:59:58.774Z,13.37
2017-11-21T23:02:26.724Z,13.60
2017-11-21T23:04:53.909Z,13.40
2017-11-21T23:07:20.869Z,13.00
2017-11-21T23:09:48.005Z,13.67
2017-11-21T23:12:15.374Z,18.20
2017-11-21T23:14:43.491Z,14.23
2017-11-21T23:17:11.855Z,12.83
2017-11-21T23:19:39.247Z,13.20
2017-11-21T23:22:06.851Z,12.50
2017-11-21T23:24:36.265Z,12.83
2017-11-21T23:27:03.163Z,17.20
2017-11-21T23:29:30.136Z,13.80
2017-11-21T23:32:03.065Z,12.63
2017-11-21T23:34:36.589Z,15.83
2017-11-21T23:37:07.223Z,12.53
2017-11-21T23:39:37.126Z,13.73
2017-11-21T23:42:06.652Z,13.50
2017-11-21T23:44:35.299Z,14.90
2017-11-21T23:47:02.314Z,13.40
2017-11-21T23:49:29.952Z,15.13
2017-11-21T23:51:56.982Z,12.77
2017-11-21T23:54:38.200Z,14.27
2017-11-21T23:57:19.467Z,11.70
